Eloy Alfaro International Airport
SEMT : now visible

Airfield :











YOU CAN JOIN US ON...

 
LOGIN :

Register | Disclaimer

   EN    FR    IT 

 









Legend :    VFR   Marginal VFR   IFR   Intensive IFR   Very Intensive IFR
Visi :
Ceiling :
>= 8 km
>= 3000ft
5 to 8 km
1000 to 3000 ft
1500m to 5 km
500 to 1000 ft
800 to 1500m
200 to 500 ft
< 800m
< 200 ft
Symbols :   Thunderstorms  Fog  Heavy snow  Heavy precipitations  Wind > 20 kt






- Airport Elevation : 48 ft
- IATA code : MEC


SEMT - Eloy Alfaro International

CURRENT METAR :
  • 191500Z 33003KT 9999 SCT020 28/23 Q1011

EXPIRED METARs :
  • 191400Z 18008KT 9999 BKN020 26/22 Q1010
  • 191300Z 21008KT 9999 BKN020 25/22 Q1010

TAF SEMT
Valid from the 19 at 12:00 until the 20 at 12:00 UTC


190915Z 1912/2012 21005KT 9999 BKN020
BECMG 1914/1915 22010KT SCT023 SCT100
BECMG 2000/2001 21007KT BKN020 TX31/1919Z TN24/2011Z



MET'MAP, your aeronautical weather chart ! - Copyright ORBIFLY December 2007 - Disclaimer

ORBIFLY MET'MAP TEAM :

Programming & Development : Alexandra Zaïnal
Concept & original design : Baudouin d'Aumeries
Assistance for programming : Marc-Olivier Méhu
Technical & hardware support : Manuel Goepfert

Contact : metmap@orbifly.com




SOURCES & CREDITS :

   NOAA       Earth
Advisory